Time,TemperatureF,DewpointF,PressureIn,WindDirection,WindDirectionDegrees,WindSpeedMPH,WindSpeedGustMPH,Humidity,HourlyPrecipIn,Conditions,Clouds,dailyrainin,SoftwareType,DateUTC
2013-10-14 00:05:00,52.0,48.0,-100.00,North,5,0.0,2.0,87,0.00,,,-99.99,,2013-10-14 04:05:00,
2013-10-14 00:14:00,52.0,48.0,-100.00,North,5,0.0,2.0,87,0.00,,,-99.99,,2013-10-14 04:14:00,
2013-10-14 00:24:00,51.0,48.0,-100.00,West,260,4.0,4.0,89,0.00,,,-99.99,,2013-10-14 04:24:00,
2013-10-14 00:44:00,50.0,48.0,-100.00,WSW,255,4.0,4.0,90,0.00,,,-99.99,,2013-10-14 04:44:00,
2013-10-14 00:54:00,50.0,48.0,-100.00,WSW,255,4.0,4.0,90,0.00,,,-99.99,,2013-10-14 04:54:00,
2013-10-14 01:03:00,50.0,48.0,-100.00,WSW,255,4.0,4.0,90,0.00,,,-99.99,,2013-10-14 05:03:00,
2013-10-14 01:23:00,50.0,47.0,-100.00,West,270,4.0,5.0,92,0.00,,,-99.99,,2013-10-14 05:23:00,
2013-10-14 01:52:00,50.0,47.0,-100.00,West,270,2.0,3.0,91,0.00,,,-99.99,,2013-10-14 05:52:00,
2013-10-14 02:22:00,49.0,48.0,-100.00,West,275,3.0,4.0,94,0.00,,,-99.99,,2013-10-14 06:22:00,
2013-10-14 02:32:00,49.0,48.0,-100.00,West,275,3.0,4.0,94,0.00,,,-99.99,,2013-10-14 06:32:00,
2013-10-14 02:52:00,49.0,48.0,-100.00,West,270,2.0,4.0,96,0.00,,,-99.99,,2013-10-14 06:52:00,
2013-10-14 03:02:00,49.0,48.0,-100.00,West,270,2.0,4.0,96,0.00,,,-99.99,,2013-10-14 07:02:00,
2013-10-14 03:11:00,49.0,48.0,-100.00,West,270,2.0,4.0,96,0.00,,,-99.99,,2013-10-14 07:11:00,
2013-10-14 03:22:00,49.0,48.0,-100.00,West,270,2.0,4.0,96,0.00,,,-99.99,,2013-10-14 07:22:00,
2013-10-14 03:42:00,48.0,47.0,-100.00,West,270,3.0,4.0,98,0.00,,,-99.99,,2013-10-14 07:42:00,
2013-10-14 03:52:00,48.0,47.0,-100.00,West,270,4.0,5.0,98,0.00,,,-99.99,,2013-10-14 07:52:00,
2013-10-14 04:22:00,48.0,47.0,-100.00,West,280,4.0,5.0,98,0.00,,,-99.99,,2013-10-14 08:22:00,
2013-10-14 04:52:00,47.0,47.0,-100.00,West,275,2.0,4.0,99,0.00,,,-99.99,,2013-10-14 08:52:00,
2013-10-14 05:11:00,47.0,47.0,-100.00,West,265,1.0,2.0,99,0.00,,,-99.99,,2013-10-14 09:11:00,
2013-10-14 05:22:00,47.0,47.0,-100.00,West,265,1.0,2.0,99,0.00,,,-99.99,,2013-10-14 09:22:00,
2013-10-14 05:33:00,47.0,47.0,-100.00,West,265,1.0,2.0,99,0.00,,,-99.99,,2013-10-14 09:33:00,
2013-10-14 05:53:00,48.0,48.0,-100.00,NW,305,2.0,3.0,99,0.00,,,-99.99,,2013-10-14 09:53:00,
2013-10-14 06:23:00,50.0,50.0,-100.00,NW,315,2.0,4.0,99,0.00,,,-99.99,,2013-10-14 10:23:00,
2013-10-14 06:42:00,50.0,50.0,-100.00,NW,315,1.0,2.0,99,0.00,,,-99.99,,2013-10-14 10:42:00,
2013-10-14 06:53:00,50.0,50.0,-100.00,NW,310,1.0,2.0,99,0.00,,,-99.99,,2013-10-14 10:53:00,
2013-10-14 07:22:00,50.0,50.0,-100.00,NW,310,1.0,2.0,99,0.00,,,-99.99,,2013-10-14 11:22:00,
2013-10-14 07:52:00,50.0,50.0,-100.00,NW,315,1.0,3.0,99,0.00,,,-99.99,,2013-10-14 11:52:00,
2013-10-14 08:12:00,49.0,49.0,-100.00,West,275,2.0,5.0,99,0.00,,,-99.99,,2013-10-14 12:12:00,
2013-10-14 08:22:00,49.0,49.0,-100.00,West,275,2.0,5.0,99,0.00,,,-99.99,,2013-10-14 12:22:00,
2013-10-14 08:52:00,49.0,49.0,-100.00,NW,315,1.0,4.0,99,0.00,,,-99.99,,2013-10-14 12:52:00,
2013-10-14 09:22:00,53.0,53.0,-100.00,NE,35,1.0,2.0,99,0.00,,,-99.99,,2013-10-14 13:22:00,
2013-10-14 10:22:00,63.0,56.0,-100.00,North,0,2.0,8.0,77,0.00,,,-99.99,,2013-10-14 14:22:00,
2013-10-14 10:52:00,64.0,54.0,-100.00,NE,55,7.0,11.0,69,0.00,,,-99.99,,2013-10-14 14:52:00,
2013-10-14 11:22:00,60.0,50.0,-100.00,NNE,30,3.0,9.0,67,0.00,,,-99.99,,2013-10-14 15:22:00,
2013-10-14 11:54:00,63.0,46.0,-100.00,NE,45,8.0,12.0,52,0.00,,,-99.99,,2013-10-14 15:54:00,
2013-10-14 12:23:00,65.0,47.0,-100.00,NNE,20,5.0,14.0,50,0.00,,,-99.99,,2013-10-14 16:23:00,
2013-10-14 12:53:00,66.0,47.0,-100.00,NE,50,7.0,13.0,50,0.00,,,-99.99,,2013-10-14 16:53:00,
2013-10-14 13:02:00,66.0,47.0,-100.00,NE,50,7.0,13.0,50,0.00,,,-99.99,,2013-10-14 17:02:00,
2013-10-14 13:22:00,67.0,44.0,-100.00,NE,55,5.0,9.0,43,0.00,,,-99.99,,2013-10-14 17:22:00,
2013-10-14 13:52:00,66.0,47.0,-100.00,NE,50,7.0,13.0,49,0.00,,,-99.99,,2013-10-14 17:52:00,
2013-10-14 14:12:00,65.0,47.0,-100.00,ENE,65,6.0,13.0,50,0.00,,,-99.99,,2013-10-14 18:12:00,
2013-10-14 14:22:00,66.0,48.0,-100.00,NNE,25,5.0,12.0,52,0.00,,,-99.99,,2013-10-14 18:22:00,
2013-10-14 14:52:00,66.0,48.0,-100.00,NE,45,7.0,12.0,52,0.00,,,-99.99,,2013-10-14 18:52:00,
2013-10-14 15:22:00,65.0,48.0,-100.00,ENE,70,4.0,12.0,54,0.00,,,-99.99,,2013-10-14 19:22:00,
2013-10-14 15:32:00,65.0,48.0,-100.00,ENE,70,4.0,12.0,54,0.00,,,-99.99,,2013-10-14 19:32:00,
2013-10-14 15:52:00,66.0,48.0,-100.00,North,0,5.0,11.0,52,0.00,,,-99.99,,2013-10-14 19:52:00,
2013-10-14 16:22:00,66.0,48.0,-100.00,North,0,3.0,11.0,53,0.00,,,-99.99,,2013-10-14 20:22:00,
2013-10-14 16:43:00,66.0,48.0,-100.00,NNE,20,6.0,11.0,51,0.00,,,-99.99,,2013-10-14 20:43:00,
2013-10-14 16:52:00,65.0,48.0,-100.00,NNE,20,7.0,13.0,54,0.00,,,-99.99,,2013-10-14 20:52:00,
2013-10-14 17:22:00,63.0,48.0,-100.00,NE,35,9.0,16.0,57,0.00,,,-99.99,,2013-10-14 21:22:00,
2013-10-14 17:44:00,64.0,49.0,-100.00,NNE,25,7.0,12.0,58,0.00,,,-99.99,,2013-10-14 21:44:00,
2013-10-14 17:54:00,64.0,49.0,-100.00,NNE,25,7.0,12.0,58,0.00,,,-99.99,,2013-10-14 21:54:00,
2013-10-14 18:24:00,62.0,49.0,-100.00,NE,40,7.0,13.0,63,0.00,,,-99.99,,2013-10-14 22:24:00,
2013-10-14 18:33:00,62.0,49.0,-100.00,NE,40,7.0,13.0,63,0.00,,,-99.99,,2013-10-14 22:33:00,
2013-10-14 18:54:00,59.0,50.0,-100.00,NE,40,5.0,7.0,71,0.00,,,-99.99,,2013-10-14 22:54:00,
2013-10-14 19:12:00,58.0,50.0,-100.00,NE,35,5.0,9.0,72,0.00,,,-99.99,,2013-10-14 23:12:00,
2013-10-14 19:22:00,57.0,50.0,-100.00,NE,45,1.0,5.0,76,0.00,,,-99.99,,2013-10-14 23:22:00,
2013-10-14 19:34:00,57.0,50.0,-100.00,NE,45,1.0,5.0,76,0.00,,,-99.99,,2013-10-14 23:34:00,
2013-10-14 19:53:00,55.0,50.0,-100.00,East,80,0.0,3.0,81,0.00,,,-99.99,,2013-10-14 23:53:00,
2013-10-14 20:12:00,55.0,50.0,-100.00,NNE,30,2.0,3.0,85,0.00,,,-99.99,,2013-10-15 00:12:00,
2013-10-14 20:22:00,53.0,51.0,-100.00,NE,35,3.0,5.0,90,0.00,,,-99.99,,2013-10-15 00:22:00,
2013-10-14 20:52:00,53.0,51.0,-100.00,NE,55,2.0,6.0,91,0.00,,,-99.99,,2013-10-15 00:52:00,
2013-10-14 21:22:00,53.0,50.0,-100.00,NE,45,1.0,4.0,92,0.00,,,-99.99,,2013-10-15 01:22:00,
2013-10-14 21:52:00,53.0,51.0,-100.00,ENE,70,2.0,4.0,92,0.00,,,-99.99,,2013-10-15 01:52:00,
2013-10-14 22:22:00,52.0,50.0,-100.00,ENE,60,2.0,4.0,93,0.00,,,-99.99,,2013-10-15 02:22:00,
2013-10-14 22:32:00,52.0,50.0,-100.00,ENE,60,2.0,4.0,93,0.00,,,-99.99,,2013-10-15 02:32:00,
2013-10-14 22:52:00,52.0,50.0,-100.00,ENE,75,3.0,6.0,94,0.00,,,-99.99,,2013-10-15 02:52:00,
2013-10-14 23:02:00,52.0,50.0,-100.00,ENE,75,3.0,6.0,94,0.00,,,-99.99,,2013-10-15 03:02:00,
2013-10-14 23:23:00,51.0,50.0,-100.00,ENE,75,1.0,6.0,95,0.00,,,-99.99,,2013-10-15 03:23:00,
2013-10-14 23:55:00,51.0,49.0,-100.00,ENE,75,2.0,4.0,96,0.00,,,-99.99,,2013-10-15 03:55:00,